Gretna, Nebraska
Current Conditions -  °F | °C
As of 10:55 AM on Friday 28 Nov 2014 (Local Time) from KMLE Reporting Station
Clear Clear  
Wind Chill: 34°   Ceiling: Unl
Heat Index: 40°   Visibility: 10mi
Dew Point: 28°   Wind: 8mph
Humidity: 62%   Direction: 190°S
Pressure: 29.83"   Gusts: NA
Location:  41.14°N, 96.24°W
Report Text: KMLE 281655Z AUTO 19007KT 10SM CLR 04/M02 A2983 RMK AO2 T00421024
Loading
Personal Weather Stations






























Interactive Weather Map New forecast layout! Learn more

10-Day Weather Forecast

Advertisements
Track Severe Weather on mobile